Latest Weather Observations for Fowlers Gap

IDN60801

Issued at 9:03 pm EDT Saturday 21 October 2017 (issued every 30 minutes, with the page automatically refreshed every 10 minutes)

About weather observations | Map of weather stations | Latest weather observations for NSW | Other Formats
Station Details ID: 046128 Name: FOWLERS GAP AWS Lat: -31.09 Lon: 141.70 Height: 181.0 m
Data from the previous 72 hours. | See also: Recent months at Fowlers Gap
Date/Time
EDT
Temp
°C
App
Temp
°C
Dew
Point
°C
Rel
Hum
%
Delta-T
°C
Wind Press
QNH
hPa
Press
MSL
hPa
Rain since
9am
mm
Dir  Spd
km/h
Gust
km/h
Spd
kts
Gust
kts
21/09:00pm 20.0 14.9 -2.3 22 9.5 SSE 15 19 8 10 1020.4 1019.9 0.0
21/08:30pm 20.9 14.9 -2.9 20 10.1 S 19 24 10 13 1020.3 1019.8 0.0
21/08:00pm 21.7 15.1 -2.9 19 10.5 S 22 30 12 16 1020.1 1019.6 0.0
21/07:30pm 22.8 15.8 -3.5 17 11.2 SSE 24 33 13 18 1019.9 1019.4 0.0
21/07:00pm 23.4 15.5 -4.7 15 11.7 S 28 39 15 21 1019.7 1019.2 0.0
21/06:30pm 24.2 16.2 -5.9 13 12.4 S 28 41 15 22 1019.7 1019.2 0.0
21/06:00pm 24.5 16.1 -5.7 13 12.5 SSE 30 39 16 21 1019.6 1019.1 0.0
21/05:30pm 25.1 17.9 -5.2 13 12.8 S 24 35 13 19 1019.5 1019.0 0.0
21/05:00pm 25.5 18.0 -4.9 13 12.9 SSE 26 39 14 21 1019.7 1019.2 0.0
21/04:30pm 25.3 17.3 -6.1 12 13.0 SSE 28 39 15 21 1020.0 1019.5 0.0
21/04:00pm 24.7 16.9 -3.6 15 12.2 SSE 28 37 15 20 1020.3 1019.8 0.0
21/03:30pm 24.2 16.9 -3.2 16 11.9 SSE 26 39 14 21 1021.0 1020.4 0.0
21/03:00pm 24.3 16.4 -1.5 18 11.5 S 30 41 16 22 1021.4 1020.8 0.0
21/02:30pm 23.8 17.1 -1.2 19 11.2 SSE 24 39 13 21 1022.1 1021.5 0.0
21/02:00pm 22.5 15.1 -0.9 21 10.4 SSE 28 35 15 19 1022.5 1021.9 0.0
21/01:30pm 22.4 15.3 -1.0 21 10.4 SSE 26 37 14 20 1022.8 1022.2 0.0
21/01:00pm 20.8 13.0 -0.5 24 9.4 SSE 30 41 16 22 1023.3 1022.7 0.0
21/12:30pm 21.0 13.8 0.8 26 9.2 SSE 28 41 15 22 1023.7 1023.1 0.0
21/12:00pm 19.5 11.9 0.5 28 8.5 SSE 30 41 16 22 1024.0 1023.5 0.0
21/11:30am 18.5 10.7 1.5 32 7.7 SSE 32 48 17 26 1024.5 1024.0 0.0
21/11:00am 17.4 9.6 1.8 35 7.0 SSE 32 44 17 24 1024.8 1024.3 0.0
21/10:30am 17.2 9.5 2.4 37 6.8 SSE 32 41 17 22 1024.8 1024.3 0.0
21/10:00am 16.4 9.1 2.4 39 6.3 SSE 30 39 16 21 1024.9 1024.4 0.0
21/09:30am 15.4 7.9 3.5 45 5.5 SSE 32 41 17 22 1024.8 1024.3 0.0
21/09:00am 14.5 6.4 3.3 47 5.1 SSE 35 46 19 25 1024.7 1024.2 0.0
21/08:30am 13.9 6.4 3.4 49 4.8 SSE 32 41 17 22 1024.7 1024.2 0.0
21/08:00am 13.2 6.4 3.3 51 4.4 S 28 37 15 20 1024.7 1024.2 0.0
21/07:30am 12.4 6.3 2.8 52 4.3 S 24 32 13 17 1024.4 1023.9 0.0
21/07:00am 11.9 6.5 2.4 52 4.1 S 20 28 11 15 1024.4 1023.9 0.0
21/06:30am 12.0 7.1 1.9 50 4.4 S 17 22 9 12 1024.5 1024.0 0.0
21/06:00am 12.2 6.8 1.5 48 4.6 S 19 26 10 14 1024.3 1023.8 0.0
21/05:30am 12.6 7.2 1.3 46 4.8 S 19 24 10 13 1024.2 1023.7 0.0
21/05:00am 12.8 7.7 0.5 43 5.2 S 17 20 9 11 1023.9 1023.4 0.0
21/04:30am 13.6 8.5 0.9 42 5.5 SSE 17 24 9 13 1024.0 1023.5 0.0
21/04:00am 13.9 8.7 0.2 39 5.8 SSE 17 22 9 12 1024.1 1023.6 0.0
21/03:30am 14.4 8.8 -0.1 37 6.1 SSE 19 24 10 13 1024.2 1023.7 0.0
21/03:00am 15.1 8.9 -0.2 35 6.5 SSE 22 32 12 17 1024.1 1023.6 0.0
21/02:30am 15.3 9.0 -0.9 33 6.8 SSE 22 28 12 15 1024.3 1023.8 0.0
21/02:00am 15.6 9.6 -1.4 31 7.0 SSE 20 26 11 14 1024.5 1024.0 0.0
21/01:30am 15.9 9.9 -1.6 30 7.3 SSE 20 28 11 15 1024.6 1024.1 0.0
21/01:00am 16.1 10.1 -1.9 29 7.4 SSE 20 26 11 14 1024.8 1024.3 0.0
21/12:30am 16.2 10.3 -2.3 28 7.6 S 19 26 10 14 1025.0 1024.5 0.0
21/12:00am 16.1 10.9 -2.4 28 7.5 S 15 20 8 11 1025.1 1024.6 0.0
 
Date/Time
EDT
Temp
°C
App
Temp
°C
Dew
Point
°C
Rel
Hum
%
Delta-T
°C
Wind Press
QNH
hPa
Press
MSL
hPa
Rain since
9am
mm
Dir  Spd
km/h
Gust
km/h
Spd
kts
Gust
kts
20/11:30pm 16.4 11.3 -2.1 28 7.6 S 15 17 8 9 1025.1 1024.6 0.0
20/11:00pm 17.2 11.7 -1.9 27 7.9 S 17 20 9 11 1024.9 1024.4 0.0
20/10:30pm 17.8 12.0 -1.4 27 8.2 S 19 24 10 13 1024.9 1024.4 0.0
20/10:00pm 18.5 12.8 -0.8 27 8.3 S 19 24 10 13 1024.8 1024.3 0.0
20/09:30pm 19.1 13.3 -0.3 27 8.5 SSE 20 24 11 13 1024.6 1024.1 0.0
20/09:00pm 19.8 13.2 -0.2 26 8.8 SSE 24 33 13 18 1024.2 1023.7 0.0
20/08:30pm 20.5 12.8 -0.2 25 9.2 SSE 30 41 16 22 1023.9 1023.4 0.0
20/08:00pm 21.2 14.3 -0.1 24 9.5 SSE 26 35 14 19 1023.5 1022.9 0.0
20/07:30pm 22.1 15.1 -0.6 22 10.2 S 26 41 14 22 1023.2 1022.6 0.0
20/07:00pm 23.0 15.7 0.2 22 10.4 S 28 39 15 21 1022.8 1022.2 0.0
20/06:30pm 23.6 15.5 0.0 21 10.8 SSE 32 43 17 23 1022.4 1021.8 0.0
20/06:00pm 24.4 17.1 0.0 20 11.2 S 28 41 15 22 1022.3 1021.7 0.0
20/05:30pm 24.5 17.9 -0.6 19 11.5 S 24 33 13 18 1022.1 1021.5 0.0
20/05:00pm 24.9 17.1 -1.0 18 11.7 S 30 43 16 23 1022.2 1021.6 0.0
20/04:30pm 24.8 17.6 -1.9 17 11.9 SSE 26 39 14 21 1022.3 1021.7 0.0
20/04:00pm 24.6 16.6 -2.0 17 11.8 SSE 30 44 16 24 1022.6 1022.0 0.0
20/03:30pm 24.2 16.8 -0.9 19 11.4 SSE 28 41 15 22 1023.0 1022.4 0.0
20/03:00pm 24.7 17.4 0.3 20 11.3 SSE 28 39 15 21 1023.5 1022.9 0.0
20/02:30pm 23.4 16.1 -0.1 21 10.8 SSE 28 43 15 23 1023.9 1023.4 0.0
20/02:00pm 22.7 15.2 1.1 24 10.0 S 30 44 16 24 1024.4 1023.9 0.0
20/01:30pm 22.7 14.9 1.7 25 9.9 SSE 32 41 17 22 1024.7 1024.2 0.0
20/01:00pm 21.4 14.4 2.2 28 9.0 SSE 28 41 15 22 1025.1 1024.6 0.0
20/12:30pm 21.4 14.1 2.6 29 8.9 SSE 30 41 16 22 1025.6 1025.1 0.0
20/12:00pm 19.9 12.8 3.6 34 7.8 SSE 30 41 16 22 1025.8 1025.3 0.0
20/11:30am 19.3 12.3 3.9 36 7.4 SSE 30 41 16 22 1026.1 1025.6 0.0
20/11:00am 17.9 10.9 4.1 40 6.5 SSE 30 43 16 23 1026.1 1025.6 0.0
20/10:30am 17.0 9.5 4.7 44 5.9 SSE 33 46 18 25 1026.3 1025.8 0.0
20/10:00am 16.2 8.8 4.9 47 5.4 SSE 33 43 18 23 1026.3 1025.8 0.0
20/09:30am 15.1 8.2 4.8 50 4.9 SSE 30 43 16 23 1026.3 1025.8 0.0
20/09:00am 14.6 8.5 4.6 51 4.7 SSE 26 43 14 23 1026.2 1025.7 0.8
20/08:30am 14.1 8.5 5.5 56 4.1 SSE 24 43 13 23 1026.0 1025.5 0.8
20/08:06am 13.7 7.4 5.6 58 3.9 SSE 28 46 15 25 1025.7 1025.2 0.8
20/08:00am 13.4 6.6 5.3 58 3.8 SSE 30 46 16 25 1025.6 1025.1 0.8
20/07:30am 12.9 8.0 5.1 59 3.6 S 20 39 11 21 1025.2 1024.7 0.8
20/07:00am 12.6 8.2 4.8 59 3.6 S 17 33 9 18 1024.8 1024.3 0.8
20/06:30am 13.4 6.7 3.5 51 4.5 S 28 46 15 25 1023.9 1023.4 0.8
20/06:28am 13.4 6.7 3.5 51 4.5 S 28 46 15 25 1023.9 1023.4 0.8
20/06:00am 14.0 8.0 3.2 48 4.9 S 24 35 13 19 1023.3 1022.7 0.8
20/05:30am 14.4 6.8 4.1 50 4.8 S 33 46 18 25 1022.9 1022.3 0.8
20/05:09am 15.0 7.7 4.4 49 5.0 SSE 32 50 17 27 1022.8 1022.2 0.8
20/05:00am 15.1 8.2 4.8 50 4.8 SSE 30 43 16 23 1022.7 1022.1 0.8
20/04:30am 15.7 8.5 5.9 52 4.8 SSE 33 46 18 25 1022.5 1021.9 0.8
20/04:00am 16.2 8.7 6.3 52 4.8 SSE 35 54 19 29 1022.3 1021.7 0.8
20/03:50am 16.4 9.6 7.1 54 4.7 SSE 32 52 17 28 1022.4 1021.8 0.8
20/03:30am 16.7 10.2 8.1 57 4.4 SSE 32 43 17 23 1022.3 1021.7 0.8
20/03:00am 17.3 10.5 9.2 59 4.2 SSE 35 48 19 26 1022.1 1021.5 0.8
20/02:30am 17.6 10.7 10.2 62 4.0 SSE 37 54 20 29 1022.0 1021.4 0.8
20/02:22am 17.7 11.3 10.6 63 3.8 SSE 35 54 19 29 1021.9 1021.3 0.8
20/02:00am 18.0 11.5 10.4 61 4.1 SSE 35 48 19 26 1022.1 1021.5 0.8
20/01:30am 18.7 12.4 12.2 66 3.6 SSE 37 52 20 28 1022.0 1021.4 0.8
20/01:00am 20.5 15.6 13.7 65 3.9 S 32 44 17 24 1022.2 1021.6 0.8
20/12:30am 22.4 18.8 13.2 56 5.3 SSE 24 35 13 19 1021.3 1020.7 0.8
20/12:00am 22.8 20.5 14.6 60 4.9 S 20 28 11 15 1022.1 1021.5 0.8
 
Date/Time
EDT
Temp
°C
App
Temp
°C
Dew
Point
°C
Rel
Hum
%
Delta-T
°C
Wind Press
QNH
hPa
Press
MSL
hPa
Rain since
9am
mm
Dir  Spd
km/h
Gust
km/h
Spd
kts
Gust
kts
19/11:30pm 23.0 22.1 16.8 68 3.8 SE 17 24 9 13 1022.3 1021.7 0.8
19/11:00pm 24.3 21.6 15.5 58 5.3 S 24 33 13 18 1022.1 1021.5 0.0
19/10:30pm 24.5 21.7 15.4 57 5.5 S 24 32 13 17 1021.6 1021.0 0.0
19/10:00pm 24.5 21.0 15.4 57 5.5 S 28 41 15 22 1021.0 1020.4 0.0
19/09:30pm 24.5 18.1 15.4 57 5.5 S 43 52 23 28 1020.5 1020.0 0.0
19/09:00pm 25.3 19.3 14.4 50 6.5 S 39 52 21 28 1020.1 1019.6 0.0
19/08:30pm 25.9 20.8 13.7 47 7.2 S 33 48 18 26 1019.0 1018.5 0.0
19/08:00pm 26.5 20.9 13.3 44 7.8 SSW 35 46 19 25 1018.4 1017.8 0.0
19/07:30pm 28.1 22.5 12.0 36 9.4 S 33 43 18 23 1017.8 1017.2 0.0
19/07:00pm 29.4 22.8 11.5 33 10.4 SSW 37 54 20 29 1017.3 1016.7 0.0
19/06:40pm 29.5 25.2 12.0 34 10.3 S 26 52 14 28 1017.1 1016.5 0.0
19/06:30pm 27.9 26.0 16.8 50 7.0 S 22 32 12 17 1017.1 1016.5 0.0
19/06:00pm 26.7 23.5 17.2 56 6.0 SE 30 39 16 21 1016.9 1016.3 0.0
19/05:49pm 28.3 24.4 16.9 50 7.2 SSE 33 44 18 24 1016.8 1016.2 0.0
19/05:30pm 28.5 23.0 16.7 48 7.4 S 41 59 22 32 1016.5 1015.9 0.0
19/05:21pm 30.2 24.1 17.6 46 8.1 SSW 46 67 25 36 1016.2 1015.6 0.0
19/05:19pm 29.7 23.1 17.2 47 7.9 SSW 48 67 26 36 1016.1 1015.5 0.0
19/05:07pm 30.1 24.9 14.6 39 9.5 SW 35 63 19 34 1015.6 1015.0 0.0
19/05:04pm 30.2 26.6 14.3 38 9.7 SW 26 52 14 28 1015.6 1015.0 0.0
19/05:00pm 33.5 31.2 14.0 30 12.0 SW 19 30 10 16 1015.5 1014.9 0.0
19/04:30pm 33.6 32.4 14.1 30 12.0 SW 13 24 7 13 1015.4 1014.8 0.0
19/04:00pm 32.8 31.4 14.4 33 11.3 SSW 15 22 8 12 1015.7 1015.1 0.0
19/03:30pm 34.3 33.0 13.7 29 12.6 SW 13 19 7 10 1016.0 1015.4 0.0
19/03:00pm 33.1 32.4 13.2 30 12.1 NNE 9 13 5 7 1016.4 1015.8 0.0
19/02:30pm 33.4 32.2 14.0 31 11.9 WNW 13 28 7 15 1016.8 1016.2 0.0
19/02:00pm 32.2 31.7 13.9 33 11.2 NNW 9 15 5 8 1017.3 1016.7 0.0
19/01:30pm 31.6 30.3 14.7 36 10.4 SSW 15 22 8 12 1017.6 1017.0 0.0
19/01:00pm 31.6 31.4 14.7 36 10.4 N 9 15 5 8 1017.9 1017.3 0.0
19/12:30pm 30.2 30.2 15.1 40 9.3 NW 9 15 5 8 1018.2 1017.6 0.0
19/12:00pm 29.7 28.9 16.1 43 8.5 N 15 20 8 11 1018.4 1017.8 0.0
19/11:30am 30.0 28.4 16.1 43 8.7 NNW 19 32 10 17 1018.6 1018.0 0.0
19/11:00am 29.7 28.2 16.8 45 8.1 N 20 30 11 16 1018.9 1018.4 0.0
19/10:30am 28.9 26.7 16.8 48 7.6 N 24 35 13 19 1018.8 1018.2 0.0
19/10:00am 28.3 26.1 16.9 50 7.2 N 24 33 13 18 1018.8 1018.2 0.0
19/09:30am 27.6 25.0 16.9 52 6.7 NNE 26 35 14 19 1018.6 1018.0 0.0
19/09:00am 26.3 23.4 16.0 53 6.3 NNE 26 33 14 18 1018.6 1018.0 0.0
19/08:30am 25.3 23.9 15.6 55 5.9 NE 17 24 9 13 1018.5 1017.9 0.0
19/08:00am 24.2 23.7 14.9 56 5.6 ENE 11 15 6 8 1018.4 1017.8 0.0
19/07:30am 23.5 23.2 15.5 60 4.8 NE 11 13 6 7 1018.1 1017.5 0.0
19/07:00am 21.4 20.5 13.8 62 4.4 ENE 11 13 6 7 1017.7 1017.1 0.0
19/06:30am 21.8 20.8 13.4 59 4.9 NE 11 15 6 8 1017.3 1016.7 0.0
19/06:00am 22.2 20.7 13.0 56 5.3 NE 13 19 7 10 1016.8 1016.2 0.0
19/05:30am 24.7 22.6 15.3 56 5.7 NNE 20 26 11 14 1016.5 1015.9 0.0
19/05:00am 24.9 22.8 15.2 54 5.9 NNE 20 30 11 16 1016.3 1015.7 0.0
19/04:30am 25.2 22.7 15.2 54 6.1 NNE 22 30 12 16 1016.2 1015.6 0.0
19/04:00am 25.3 22.6 14.7 51 6.4 N 22 30 12 16 1016.4 1015.8 0.0
19/03:30am 25.4 23.3 14.8 52 6.4 N 19 24 10 13 1016.4 1015.8 0.0
19/03:00am 22.0 21.6 12.5 54 5.4 ENE 6 7 3 4 1016.8 1016.2 0.0
19/02:30am 22.7 23.6 12.9 54 5.7 CALM 0 0 0 0 1016.7 1016.1 0.0
19/02:00am 23.1 22.4 13.3 54 5.7 ENE 9 13 5 7 1016.7 1016.1 0.0
19/01:30am 22.9 23.0 12.8 53 5.8 N 4 9 2 5 1017.0 1016.4 0.0
19/01:00am 23.9 23.4 13.7 53 6.0 NNW 9 11 5 6 1017.1 1016.5 0.0
19/12:30am 23.8 23.2 12.4 48 6.6 NNW 7 9 4 5 1017.3 1016.7 0.0
19/12:00am 25.0 24.2 13.9 50 6.6 NNW 11 13 6 7 1017.2 1016.6 0.0
 
Date/Time
EDT
Temp
°C
App
Temp
°C
Dew
Point
°C
Rel
Hum
%
Delta-T
°C
Wind Press
QNH
hPa
Press
MSL
hPa
Rain since
9am
mm
Dir  Spd
km/h
Gust
km/h
Spd
kts
Gust
kts
18/11:30pm 24.8 24.3 13.7 50 6.6 NNW 9 11 5 6 1017.2 1016.6 0.0
18/11:00pm 25.1 24.4 13.3 48 6.9 NNW 9 11 5 6 1017.1 1016.5 0.0
18/10:30pm 25.4 25.0 12.9 45 7.3 NNW 7 9 4 5 1017.2 1016.6 0.0
18/10:00pm 26.6 26.1 13.7 45 7.7 N 9 13 5 7 1017.1 1016.5 0.0
18/09:30pm 27.5 26.2 13.8 43 8.2 N 13 15 7 8 1016.8 1016.2 0.0

Other Formats:

Comma delimited format used in spreadsheet applications
http://www.bom.gov.au/fwo/IDN60801/IDN60801.94686.axf

JavaScript Object Notation format (JSON) in row-major order
http://www.bom.gov.au/fwo/IDN60801/IDN60801.94686.json